Time;durP1;ratioP1;P1;durP2;ratioP2;P2;SDS_P1;SDS_P2;PMS_P1;PMS_P2;Temp;Humidity;BMP_temperature;BMP_pressure;BME280_temperature;BME280_humidity;BME280_pressure;Samples;Min_cycle;Max_cycle;Signal;HPM_P1;HPM_P2
2021/03/19 00:00:05;;;;;;;;;;;12.20;67.00;;;;;;2097025;28;767;-51
2021/03/19 00:01:30;;;;;;;;;;;12.20;66.20;;;;;;2096116;28;736;-49
2021/03/19 00:02:51;;;;;;;;;;;12.20;66.20;;;;;;2096021;28;789;-51
2021/03/19 00:04:10;;;;;;;;;;;12.10;66.20;;;;;;2087263;28;746;-48
2021/03/19 00:05:29;;;;;;;;;;;12.20;66.40;;;;;;2091170;28;766;-47
2021/03/19 00:06:48;;;;;;;;;;;12.10;66.30;;;;;;2098890;28;759;-48
2021/03/19 00:08:08;;;;;;;;;;;12.10;66.30;;;;;;2099401;28;755;-48
2021/03/19 00:09:27;;;;;;;;;;;12.10;67.00;;;;;;2098455;28;1355;-48
2021/03/19 00:10:46;;;;;;;;;;;12.10;66.30;;;;;;2095183;28;712;-45
2021/03/19 00:12:05;;;;;;;;;;;12.10;66.20;;;;;;2098732;28;771;-46
2021/03/19 00:13:24;;;;;;;;;;;12.10;66.30;;;;;;2098455;28;776;-46
2021/03/19 00:14:44;;;;;;;;;;;12.10;66.20;;;;;;2094548;28;769;-48
2021/03/19 00:16:03;;;;;;;;;;;12.10;66.20;;;;;;2095166;28;756;-45
2021/03/19 00:17:22;;;;;;;;;;;12.10;66.30;;;;;;2094846;28;1965;-48
2021/03/19 00:18:41;;;;;;;;;;;12.10;66.20;;;;;;2095208;28;754;-48
2021/03/19 00:20:01;;;;;;;;;;;12.10;66.20;;;;;;2097942;28;804;-48
2021/03/19 00:21:20;;;;;;;;;;;12.10;66.30;;;;;;2099040;28;765;-48
2021/03/19 00:22:40;;;;;;;;;;;12.10;66.20;;;;;;2090056;28;1032;-48
2021/03/19 00:23:59;;;;;;;;;;;12.10;66.20;;;;;;2090529;28;938;-49
2021/03/19 00:25:18;;;;;;;;;;;12.00;66.20;;;;;;2096406;28;1042;-47
2021/03/19 00:26:37;;;;;;;;;;;12.10;66.30;;;;;;2084600;28;944;-47
2021/03/19 00:27:56;;;;;;;;;;;12.10;66.90;;;;;;2098789;28;736;-47
2021/03/19 00:29:16;;;;;;;;;;;12.10;66.20;;;;;;2098478;28;1480;-48
2021/03/19 00:30:35;;;;;;;;;;;12.10;67.00;;;;;;2095184;28;1043;-48
2021/03/19 00:31:54;;;;;;;;;;;12.10;66.30;;;;;;2098673;28;741;-48
2021/03/19 00:33:13;;;;;;;;;;;12.00;66.10;;;;;;2098681;28;742;-47
2021/03/19 00:34:32;;;;;;;;;;;12.00;66.10;;;;;;2086812;28;734;-47
2021/03/19 00:35:52;;;;;;;;;;;12.00;66.00;;;;;;2090742;28;749;-47
2021/03/19 00:37:11;;;;;;;;;;;12.00;66.10;;;;;;2098495;28;2003;-47
2021/03/19 00:38:30;;;;;;;;;;;12.00;66.20;;;;;;2098399;28;941;-48
2021/03/19 00:39:50;;;;;;;;;;;12.00;66.20;;;;;;2098727;28;732;-47
2021/03/19 00:41:09;;;;;;;;;;;12.10;66.20;;;;;;2099074;28;713;-48
2021/03/19 00:42:28;;;;;;;;;;;12.00;66.10;;;;;;2098616;28;702;-48
2021/03/19 00:43:47;;;;;;;;;;;12.00;66.10;;;;;;2098350;28;773;-47
2021/03/19 00:45:07;;;;;;;;;;;12.00;66.10;;;;;;2097481;28;785;-46
2021/03/19 00:46:26;;;;;;;;;;;12.00;66.10;;;;;;2094808;28;814;-46
2021/03/19 00:47:45;;;;;;;;;;;12.00;66.80;;;;;;2095072;28;821;-46
2021/03/19 00:49:04;;;;;;;;;;;12.00;66.80;;;;;;2098418;28;1328;-47
2021/03/19 00:50:27;;;;;;;;;;;12.00;66.20;;;;;;2098718;28;724;-47
2021/03/19 00:51:47;;;;;;;;;;;12.00;66.20;;;;;;2098147;28;745;-47
2021/03/19 00:53:06;;;;;;;;;;;12.00;66.20;;;;;;2098483;28;752;-48
2021/03/19 00:54:25;;;;;;;;;;;12.00;66.30;;;;;;2093132;28;748;-47
2021/03/19 00:55:45;;;;;;;;;;;12.00;66.30;;;;;;2088309;28;868;-46
2021/03/19 00:57:04;;;;;;;;;;;12.00;66.20;;;;;;2089413;28;1906;-47
2021/03/19 00:58:23;;;;;;;;;;;12.00;66.30;;;;;;2090447;28;713;-48
2021/03/19 00:59:42;;;;;;;;;;;12.00;67.00;;;;;;2090192;28;1476;-46
2021/03/19 01:01:01;;;;;;;;;;;12.00;66.20;;;;;;2090361;28;713;-47
2021/03/19 01:02:20;;;;;;;;;;;12.00;66.90;;;;;;2089833;28;757;-46
2021/03/19 01:03:40;;;;;;;;;;;12.00;66.10;;;;;;2089677;28;779;-46
2021/03/19 01:04:59;;;;;;;;;;;11.90;66.00;;;;;;2089129;28;734;-47
2021/03/19 01:06:18;;;;;;;;;;;12.00;66.20;;;;;;2089839;28;747;-47
2021/03/19 01:07:37;;;;;;;;;;;12.00;66.20;;;;;;2090268;28;976;-46
2021/03/19 01:08:57;;;;;;;;;;;11.90;66.00;;;;;;2089791;28;1375;-47
2021/03/19 01:10:21;;;;;;;;;;;11.90;66.70;;;;;;2086698;28;770;-46
2021/03/19 01:11:40;;;;;;;;;;;11.90;65.90;;;;;;2087085;28;743;-48
2021/03/19 01:12:59;;;;;;;;;;;11.90;66.70;;;;;;2090344;28;733;-48
2021/03/19 01:14:18;;;;;;;;;;;11.90;66.70;;;;;;2090395;28;997;-48
2021/03/19 01:15:37;;;;;;;;;;;11.90;66.70;;;;;;2091709;28;1289;-48
2021/03/19 01:16:56;;;;;;;;;;;11.90;65.90;;;;;;2089834;28;1898;-47
2021/03/19 01:18:16;;;;;;;;;;;11.90;65.90;;;;;;2090516;28;722;-47
2021/03/19 01:19:35;;;;;;;;;;;11.90;66.00;;;;;;2089835;28;1465;-48
2021/03/19 01:20:55;;;;;;;;;;;11.90;66.10;;;;;;2090033;28;734;-47
2021/03/19 01:22:14;;;;;;;;;;;11.90;66.10;;;;;;2089634;28;735;-47
2021/03/19 01:23:34;;;;;;;;;;;11.90;66.10;;;;;;2090326;28;740;-47
2021/03/19 01:24:52;;;;;;;;;;;11.90;66.10;;;;;;2088254;28;1085;-47
2021/03/19 01:26:12;;;;;;;;;;;11.90;66.00;;;;;;2092666;28;1035;-47
2021/03/19 01:27:31;;;;;;;;;;;11.90;66.00;;;;;;2097673;28;740;-47
2021/03/19 01:28:51;;;;;;;;;;;11.90;66.00;;;;;;2098182;28;1375;-48
2021/03/19 01:30:11;;;;;;;;;;;11.90;66.70;;;;;;2097920;28;754;-49
2021/03/19 01:31:30;;;;;;;;;;;11.90;66.00;;;;;;2094761;28;740;-47
2021/03/19 01:32:49;;;;;;;;;;;11.90;66.00;;;;;;2094728;28;758;-48
2021/03/19 01:34:08;;;;;;;;;;;11.90;66.00;;;;;;2094459;28;720;-47
2021/03/19 01:35:29;;;;;;;;;;;11.90;66.00;;;;;;2097248;28;752;-47
2021/03/19 01:36:48;;;;;;;;;;;11.90;66.00;;;;;;2094465;28;1971;-47
2021/03/19 01:38:08;;;;;;;;;;;11.80;65.80;;;;;;2098228;28;734;-48
2021/03/19 01:39:27;;;;;;;;;;;11.90;65.90;;;;;;2094355;28;1415;-48
2021/03/19 01:40:47;;;;;;;;;;;11.80;65.80;;;;;;2086269;28;732;-48
2021/03/19 01:42:07;;;;;;;;;;;11.80;65.80;;;;;;2094528;28;753;-46
2021/03/19 01:43:31;;;;;;;;;;;11.80;65.90;;;;;;2097800;28;728;-47
2021/03/19 01:44:56;;;;;;;;;;;11.80;66.60;;;;;;2094694;28;785;-45
2021/03/19 01:46:34;;;;;;;;;;;11.80;65.80;;;;;;2098199;28;717;-49
2021/03/19 01:48:12;;;;;;;;;;;11.80;65.90;;;;;;2098356;28;741;-48
2021/03/19 01:49:51;;;;;;;;;;;11.80;66.60;;;;;;2098458;28;1446;-47
2021/03/19 01:51:28;;;;;;;;;;;11.80;65.90;;;;;;2097562;28;744;-46
2021/03/19 01:53:06;;;;;;;;;;;11.80;66.00;;;;;;2098311;28;841;-47
2021/03/19 01:54:44;;;;;;;;;;;11.80;66.10;;;;;;2093569;28;1010;-46
2021/03/19 01:56:23;;;;;;;;;;;11.80;66.00;;;;;;2091182;28;984;-47
2021/03/19 01:58:00;;;;;;;;;;;11.80;66.00;;;;;;2089115;28;737;-49
2021/03/19 01:59:38;;;;;;;;;;;11.80;66.00;;;;;;2082473;28;1477;-46
2021/03/19 02:01:17;;;;;;;;;;;11.80;66.70;;;;;;2081749;28;773;-48
2021/03/19 02:02:55;;;;;;;;;;;11.80;66.00;;;;;;2081589;28;717;-46
2021/03/19 02:04:33;;;;;;;;;;;11.80;66.00;;;;;;2081769;28;707;-47
2021/03/19 02:06:11;;;;;;;;;;;11.70;65.90;;;;;;2081511;28;715;-49
2021/03/19 02:07:50;;;;;;;;;;;11.80;66.00;;;;;;2081542;28;732;-46
2021/03/19 02:09:28;;;;;;;;;;;11.80;66.00;;;;;;2081645;28;1348;-46
2021/03/19 02:11:06;;;;;;;;;;;11.70;66.00;;;;;;2081648;28;734;-45
2021/03/19 02:12:44;;;;;;;;;;;11.70;66.60;;;;;;2081316;28;757;-46
2021/03/19 02:14:23;;;;;;;;;;;11.70;65.90;;;;;;2081540;28;800;-49
2021/03/19 02:16:01;;;;;;;;;;;11.70;65.90;;;;;;2088669;28;745;-47
2021/03/19 02:17:39;;;;;;;;;;;11.70;65.80;;;;;;2082137;28;1915;-47
2021/03/19 02:19:17;;;;;;;;;;;11.70;66.60;;;;;;2081513;28;1440;-47
2021/03/19 02:20:55;;;;;;;;;;;11.70;65.90;;;;;;2081401;28;722;-47
2021/03/19 02:22:33;;;;;;;;;;;11.70;65.90;;;;;;2081720;28;715;-51
2021/03/19 02:24:10;;;;;;;;;;;11.70;66.60;;;;;;2081474;28;726;-48
2021/03/19 02:25:48;;;;;;;;;;;11.70;65.90;;;;;;2079847;28;1001;-50
2021/03/19 02:27:26;;;;;;;;;;;11.70;65.90;;;;;;2091770;28;1123;-52
2021/03/19 02:29:04;;;;;;;;;;;11.70;65.90;;;;;;2088143;28;1319;-53
2021/03/19 02:30:43;;;;;;;;;;;11.70;66.00;;;;;;2091532;28;1098;-51
2021/03/19 02:32:22;;;;;;;;;;;11.70;65.90;;;;;;2093496;28;1252;-49
2021/03/19 02:34:11;;;;;;;;;;;11.70;65.90;;;;;;2095926;28;1195;-47
2021/03/19 02:35:30;;;;;;;;;;;11.70;65.90;;;;;;2088798;28;1514;-50
2021/03/19 02:36:48;;;;;;;;;;;11.70;65.80;;;;;;2088289;28;1975;-50
2021/03/19 02:38:07;;;;;;;;;;;11.70;66.30;;;;;;2090815;28;741;-51
2021/03/19 02:39:27;;;;;;;;;;;11.70;66.30;;;;;;2093355;28;1379;-47
2021/03/19 02:40:46;;;;;;;;;;;11.70;66.30;;;;;;2092024;28;726;-51
2021/03/19 02:42:06;;;;;;;;;;;11.70;65.60;;;;;;2095744;28;726;-49
2021/03/19 02:43:25;;;;;;;;;;;11.70;65.50;;;;;;2097462;28;727;-48
2021/03/19 02:44:44;;;;;;;;;;;11.70;65.30;;;;;;2097802;28;743;-51
2021/03/19 02:46:03;;;;;;;;;;;11.70;65.40;;;;;;2096999;28;729;-50
2021/03/19 02:47:22;;;;;;;;;;;11.70;65.20;;;;;;2097352;28;730;-52
2021/03/19 02:48:42;;;;;;;;;;;11.70;65.20;;;;;;2097903;28;724;-51
2021/03/19 02:50:01;;;;;;;;;;;11.70;65.00;;;;;;2097758;28;800;-52
2021/03/19 02:51:20;;;;;;;;;;;11.70;65.00;;;;;;2097366;28;713;-48
2021/03/19 02:52:40;;;;;;;;;;;11.70;65.10;;;;;;2094084;28;717;-51
2021/03/19 02:53:59;;;;;;;;;;;11.70;65.10;;;;;;2088169;28;1422;-47
2021/03/19 02:55:18;;;;;;;;;;;11.80;65.10;;;;;;2089799;28;1509;-51
2021/03/19 02:56:38;;;;;;;;;;;11.80;65.10;;;;;;2094260;28;1161;-48
2021/03/19 02:57:57;;;;;;;;;;;11.80;65.70;;;;;;2097241;28;892;-47
2021/03/19 02:59:16;;;;;;;;;;;11.80;64.70;;;;;;2095707;28;1533;-50
2021/03/19 03:00:35;;;;;;;;;;;11.90;64.60;;;;;;2094489;28;1012;-47
2021/03/19 03:01:55;;;;;;;;;;;11.90;64.20;;;;;;2090475;28;910;-49
2021/03/19 03:03:14;;;;;;;;;;;12.00;64.00;;;;;;2096693;28;1494;-48
2021/03/19 03:04:34;;;;;;;;;;;12.00;63.70;;;;;;2092566;28;865;-48
2021/03/19 03:05:53;;;;;;;;;;;12.00;63.30;;;;;;2089855;28;1400;-48
2021/03/19 03:07:31;;;;;;;;;;;12.10;63.20;;;;;;2091591;28;1174;-50
2021/03/19 03:08:50;;;;;;;;;;;12.10;62.90;;;;;;2090578;28;813;-47
2021/03/19 03:10:10;;;;;;;;;;;12.10;62.60;;;;;;2095925;28;1297;-49
2021/03/19 03:11:29;;;;;;;;;;;12.10;62.40;;;;;;2082502;28;825;-47
2021/03/19 03:12:48;;;;;;;;;;;12.10;62.30;;;;;;2079368;28;835;-52
2021/03/19 03:14:08;;;;;;;;;;;12.10;62.20;;;;;;2082838;28;943;-48
2021/03/19 03:15:27;;;;;;;;;;;12.10;62.20;;;;;;2081747;28;774;-49
2021/03/19 03:16:47;;;;;;;;;;;12.10;62.20;;;;;;2082546;28;1977;-51
2021/03/19 03:18:06;;;;;;;;;;;12.10;62.10;;;;;;2083257;28;776;-48
2021/03/19 03:19:26;;;;;;;;;;;12.10;62.10;;;;;;2082758;28;1357;-51
2021/03/19 03:20:49;;;;;;;;;;;12.10;62.10;;;;;;2080968;28;1132;-49
2021/03/19 03:22:08;;;;;;;;;;;12.10;62.10;;;;;;2093101;28;1117;-51
2021/03/19 03:23:27;;;;;;;;;;;12.10;62.20;;;;;;2093453;28;1219;-49
2021/03/19 03:24:47;;;;;;;;;;;12.10;62.90;;;;;;2090797;28;1161;-53
2021/03/19 03:26:06;;;;;;;;;;;12.10;62.20;;;;;;2089629;28;1238;-48
2021/03/19 03:27:56;;;;;;;;;;;12.10;62.30;;;;;;2096073;28;1230;-54
2021/03/19 03:29:15;;;;;;;;;;;12.10;62.30;;;;;;2086417;28;1766;-52
2021/03/19 03:30:36;;;;;;;;;;;12.10;62.40;;;;;;2088472;28;1271;-53
2021/03/19 03:31:55;;;;;;;;;;;12.10;62.40;;;;;;2084308;28;1151;-48
2021/03/19 03:33:14;;;;;;;;;;;12.10;62.40;;;;;;2084055;28;967;-49
2021/03/19 03:34:34;;;;;;;;;;;12.10;62.40;;;;;;2078926;28;1262;-49
2021/03/19 03:35:53;;;;;;;;;;;12.10;62.50;;;;;;2090238;28;922;-50
2021/03/19 03:37:12;;;;;;;;;;;12.10;62.50;;;;;;2093787;28;2019;-51
2021/03/19 03:38:32;;;;;;;;;;;12.10;62.50;;;;;;2094944;28;1291;-47
2021/03/19 03:39:51;;;;;;;;;;;12.00;62.50;;;;;;2090098;28;1739;-51
2021/03/19 03:41:11;;;;;;;;;;;12.10;63.40;;;;;;2094995;28;1350;-48
2021/03/19 03:42:30;;;;;;;;;;;12.00;63.30;;;;;;2096552;28;1189;-49
2021/03/19 03:43:49;;;;;;;;;;;12.00;62.70;;;;;;2092915;28;1292;-52
2021/03/19 03:45:09;;;;;;;;;;;12.00;63.40;;;;;;2094289;28;1281;-48
2021/03/19 03:46:29;;;;;;;;;;;12.00;62.70;;;;;;2093699;28;1366;-50
2021/03/19 03:47:48;;;;;;;;;;;12.00;62.80;;;;;;2093228;28;1526;-50
2021/03/19 03:49:08;;;;;;;;;;;12.00;62.80;;;;;;2093105;28;1486;-49
2021/03/19 03:50:28;;;;;;;;;;;12.00;62.90;;;;;;2092742;28;1069;-50
2021/03/19 03:51:47;;;;;;;;;;;12.00;62.80;;;;;;2090150;28;1254;-50
2021/03/19 03:53:07;;;;;;;;;;;12.00;63.00;;;;;;2091467;28;1210;-49
2021/03/19 03:54:27;;;;;;;;;;;12.00;63.60;;;;;;2093944;28;1285;-48
2021/03/19 03:55:46;;;;;;;;;;;12.00;63.70;;;;;;2093739;28;1214;-47
2021/03/19 03:57:06;;;;;;;;;;;12.00;63.00;;;;;;2090662;28;1977;-49
2021/03/19 03:58:25;;;;;;;;;;;12.00;63.00;;;;;;2096977;28;1340;-48
2021/03/19 03:59:46;;;;;;;;;;;11.90;62.90;;;;;;2095597;28;1459;-51
2021/03/19 04:01:05;;;;;;;;;;;12.00;63.10;;;;;;2088992;28;1052;-48
2021/03/19 04:02:27;;;;;;;;;;;12.00;63.10;;;;;;2083147;28;1212;-47
2021/03/19 04:03:46;;;;;;;;;;;11.90;63.00;;;;;;2084858;28;1180;-52
2021/03/19 04:05:06;;;;;;;;;;;11.90;63.10;;;;;;2090257;28;1151;-52
2021/03/19 04:06:25;;;;;;;;;;;11.90;63.10;;;;;;2096986;28;1102;-52
2021/03/19 04:07:44;;;;;;;;;;;11.90;63.10;;;;;;2083661;28;1028;-50
2021/03/19 04:09:04;;;;;;;;;;;11.90;63.10;;;;;;2087306;28;1403;-51
2021/03/19 04:10:23;;;;;;;;;;;11.90;63.20;;;;;;2092804;28;1273;-53
2021/03/19 04:11:42;;;;;;;;;;;11.90;63.20;;;;;;2093132;28;1294;-51
2021/03/19 04:13:02;;;;;;;;;;;11.90;63.20;;;;;;2090625;28;1084;-53
2021/03/19 04:14:21;;;;;;;;;;;11.90;63.20;;;;;;2092811;28;1393;-55
2021/03/19 04:15:40;;;;;;;;;;;11.90;63.20;;;;;;2085989;28;1124;-47
2021/03/19 04:17:00;;;;;;;;;;;11.90;63.30;;;;;;2089233;28;1898;-49
2021/03/19 04:18:19;;;;;;;;;;;11.90;64.10;;;;;;2088022;28;1511;-48
2021/03/19 04:19:38;;;;;;;;;;;11.90;63.30;;;;;;2092184;28;1451;-51
2021/03/19 04:20:58;;;;;;;;;;;11.90;63.40;;;;;;2084336;28;1212;-52
2021/03/19 04:22:17;;;;;;;;;;;11.80;63.30;;;;;;2092184;28;1147;-47
2021/03/19 04:23:37;;;;;;;;;;;11.80;63.30;;;;;;2090897;28;1348;-49
2021/03/19 04:24:57;;;;;;;;;;;11.80;63.30;;;;;;2089429;28;1116;-52
2021/03/19 04:26:16;;;;;;;;;;;11.80;63.30;;;;;;2096702;28;1447;-49
2021/03/19 04:27:38;;;;;;;;;;;11.80;63.30;;;;;;2089706;28;1359;-50
2021/03/19 04:28:57;;;;;;;;;;;11.80;63.30;;;;;;2090580;28;1546;-53
2021/03/19 04:30:18;;;;;;;;;;;11.80;63.50;;;;;;2096887;28;1283;-49
2021/03/19 04:31:36;;;;;;;;;;;11.80;64.60;;;;;;2081100;28;1356;-48
2021/03/19 04:32:56;;;;;;;;;;;11.90;64.80;;;;;;2087282;28;1264;-51
2021/03/19 04:34:15;;;;;;;;;;;11.90;65.30;;;;;;2093108;28;1412;-49
2021/03/19 04:35:34;;;;;;;;;;;11.90;66.10;;;;;;2087924;28;941;-51
2021/03/19 04:36:55;;;;;;;;;;;11.90;66.20;;;;;;2095371;28;1977;-48
2021/03/19 04:38:16;;;;;;;;;;;11.90;65.30;;;;;;2090829;28;808;-52
2021/03/19 04:39:36;;;;;;;;;;;11.90;65.00;;;;;;2090012;28;1344;-49
2021/03/19 04:40:55;;;;;;;;;;;11.90;64.70;;;;;;2079050;28;820;-51
2021/03/19 04:42:14;;;;;;;;;;;11.80;64.50;;;;;;2086588;28;716;-52
2021/03/19 04:43:34;;;;;;;;;;;11.80;64.50;;;;;;2090254;28;782;-50
2021/03/19 04:44:53;;;;;;;;;;;11.80;64.40;;;;;;2087139;28;1324;-48
2021/03/19 04:46:12;;;;;;;;;;;11.80;64.50;;;;;;2095852;28;1622;-49
2021/03/19 04:47:31;;;;;;;;;;;11.80;64.50;;;;;;2097254;28;1259;-49
2021/03/19 04:48:51;;;;;;;;;;;11.80;64.50;;;;;;2094164;28;1322;-50
2021/03/19 04:50:10;;;;;;;;;;;11.80;64.50;;;;;;2096399;28;1410;-49
2021/03/19 04:51:30;;;;;;;;;;;11.80;65.20;;;;;;2094780;28;1166;-49
2021/03/19 04:52:49;;;;;;;;;;;11.80;64.50;;;;;;2095963;28;1890;-53
2021/03/19 04:54:08;;;;;;;;;;;11.80;64.60;;;;;;2090298;28;1310;-52
2021/03/19 04:55:27;;;;;;;;;;;11.70;64.50;;;;;;2095208;28;1423;-51
2021/03/19 04:56:46;;;;;;;;;;;11.70;64.60;;;;;;2094034;28;1225;-52
2021/03/19 04:58:06;;;;;;;;;;;11.70;64.50;;;;;;2098056;28;1203;-50
2021/03/19 04:59:25;;;;;;;;;;;11.70;64.50;;;;;;2094232;28;1397;-49
2021/03/19 05:00:44;;;;;;;;;;;11.70;64.50;;;;;;2096571;28;1164;-52
2021/03/19 05:02:03;;;;;;;;;;;11.70;64.60;;;;;;2088183;28;1368;-49
2021/03/19 05:03:22;;;;;;;;;;;11.70;64.50;;;;;;2085629;28;1062;-51
2021/03/19 05:04:42;;;;;;;;;;;11.70;64.60;;;;;;2089767;28;1247;-50
2021/03/19 05:06:01;;;;;;;;;;;11.70;64.60;;;;;;2095527;28;1418;-50
2021/03/19 05:07:20;;;;;;;;;;;11.70;64.60;;;;;;2096861;28;1314;-51
2021/03/19 05:08:40;;;;;;;;;;;11.70;64.70;;;;;;2087631;28;825;-50
2021/03/19 05:09:59;;;;;;;;;;;11.70;65.50;;;;;;2087850;28;1570;-52
2021/03/19 05:11:18;;;;;;;;;;;11.70;64.80;;;;;;2085582;28;1403;-51
2021/03/19 05:12:37;;;;;;;;;;;11.70;64.90;;;;;;2089740;28;1446;-49
2021/03/19 05:13:56;;;;;;;;;;;11.70;64.90;;;;;;2089740;28;1162;-52
2021/03/19 05:15:16;;;;;;;;;;;11.60;64.90;;;;;;2087423;28;1367;-50
2021/03/19 05:16:35;;;;;;;;;;;11.70;65.00;;;;;;2085655;28;1197;-52
2021/03/19 05:17:54;;;;;;;;;;;11.60;65.00;;;;;;2090091;28;1344;-52
2021/03/19 05:19:13;;;;;;;;;;;11.60;65.00;;;;;;2081670;28;1431;-54
2021/03/19 05:20:33;;;;;;;;;;;11.60;65.10;;;;;;2087624;28;1186;-52
2021/03/19 05:21:52;;;;;;;;;;;11.60;65.10;;;;;;2088852;28;1371;-49
2021/03/19 05:23:18;;;;;;;;;;;11.60;65.10;;;;;;2090335;28;1474;-52
2021/03/19 05:24:37;;;;;;;;;;;11.60;65.20;;;;;;2090128;28;1054;-51
2021/03/19 05:25:57;;;;;;;;;;;11.60;65.20;;;;;;2087786;28;1501;-48
2021/03/19 05:27:16;;;;;;;;;;;11.60;65.20;;;;;;2086473;28;1064;-49
2021/03/19 05:28:35;;;;;;;;;;;11.60;65.50;;;;;;2085333;28;1191;-49
2021/03/19 05:29:55;;;;;;;;;;;11.60;64.90;;;;;;2084924;28;1434;-51
2021/03/19 05:31:14;;;;;;;;;;;11.60;64.80;;;;;;2089815;28;1468;-50
2021/03/19 05:32:33;;;;;;;;;;;11.60;64.90;;;;;;2090209;28;1365;-52
2021/03/19 05:33:53;;;;;;;;;;;11.60;65.00;;;;;;2088745;28;1279;-49
2021/03/19 05:35:13;;;;;;;;;;;11.60;64.90;;;;;;2088622;28;1252;-49
2021/03/19 05:36:32;;;;;;;;;;;11.70;65.80;;;;;;2088857;28;1282;-50
2021/03/19 05:37:51;;;;;;;;;;;11.60;65.00;;;;;;2088111;28;1967;-49
2021/03/19 05:39:10;;;;;;;;;;;11.70;65.10;;;;;;2090471;28;1450;-50
2021/03/19 05:40:32;;;;;;;;;;;11.70;65.30;;;;;;2089659;28;1218;-51
2021/03/19 05:41:51;;;;;;;;;;;11.80;65.70;;;;;;2087967;28;1040;-50
2021/03/19 05:43:14;;;;;;;;;;;11.90;65.50;;;;;;2091170;28;1179;-49
2021/03/19 05:44:33;;;;;;;;;;;11.90;64.50;;;;;;2091850;28;1280;-51
2021/03/19 05:46:09;;;;;;;;;;;11.90;64.10;;;;;;2089456;28;1031;-51
2021/03/19 05:47:28;;;;;;;;;;;12.00;64.70;;;;;;2081270;28;1060;-47
2021/03/19 05:48:48;;;;;;;;;;;12.00;63.60;;;;;;2084061;28;1306;-48
2021/03/19 05:50:09;;;;;;;;;;;12.10;63.50;;;;;;2091514;28;1211;-50
2021/03/19 05:51:40;;;;;;;;;;;12.10;63.20;;;;;;2089673;28;1187;-48
2021/03/19 05:53:09;;;;;;;;;;;12.10;62.80;;;;;;2091567;28;1207;-47
2021/03/19 05:54:30;;;;;;;;;;;12.20;62.60;;;;;;2089128;28;1327;-47
2021/03/19 05:55:49;;;;;;;;;;;12.20;63.00;;;;;;2087691;28;1183;-49
2021/03/19 05:57:13;;;;;;;;;;;12.20;62.00;;;;;;2088359;28;1977;-47
2021/03/19 05:58:32;;;;;;;;;;;12.30;61.80;;;;;;2078413;28;1343;-48
2021/03/19 05:59:52;;;;;;;;;;;12.30;61.60;;;;;;2080551;28;1491;-48
2021/03/19 06:01:11;;;;;;;;;;;12.30;61.50;;;;;;2089984;28;1389;-48
2021/03/19 06:02:31;;;;;;;;;;;12.30;61.30;;;;;;2092156;28;1246;-48
2021/03/19 06:03:50;;;;;;;;;;;12.30;61.40;;;;;;2088312;28;1339;-48
2021/03/19 06:05:10;;;;;;;;;;;12.30;61.30;;;;;;2088675;28;1378;-48
2021/03/19 06:06:47;;;;;;;;;;;12.30;62.10;;;;;;2089668;28;1069;-48
2021/03/19 06:08:09;;;;;;;;;;;12.30;61.30;;;;;;2088913;28;1434;-48
2021/03/19 06:09:28;;;;;;;;;;;12.30;61.40;;;;;;2091254;28;1427;-47
2021/03/19 06:10:47;;;;;;;;;;;12.30;61.40;;;;;;2087735;28;1225;-48
2021/03/19 06:12:10;;;;;;;;;;;12.30;61.50;;;;;;2090993;28;1246;-48
2021/03/19 06:13:49;;;;;;;;;;;12.30;61.40;;;;;;2088519;28;1303;-48
2021/03/19 06:15:21;;;;;;;;;;;12.40;62.10;;;;;;2087316;28;1290;-48
2021/03/19 06:16:44;;;;;;;;;;;12.40;61.00;;;;;;2080214;28;1196;-48
2021/03/19 06:18:23;;;;;;;;;;;12.50;60.90;;;;;;2089818;28;1355;-49
2021/03/19 06:20:06;;;;;;;;;;;12.50;60.70;;;;;;2089410;28;1347;-47
2021/03/19 06:21:35;;;;;;;;;;;12.50;60.30;;;;;;2089576;28;1213;-48
2021/03/19 06:22:54;;;;;;;;;;;12.60;60.00;;;;;;2089417;28;1347;-49
2021/03/19 06:24:23;;;;;;;;;;;12.70;59.90;;;;;;2088983;28;1255;-48
2021/03/19 06:25:43;;;;;;;;;;;12.70;59.70;;;;;;2090219;28;1287;-49
2021/03/19 06:27:13;;;;;;;;;;;12.80;59.40;;;;;;2090352;28;1264;-48
2021/03/19 06:28:36;;;;;;;;;;;12.80;59.70;;;;;;2088866;28;1282;-47
2021/03/19 06:29:56;;;;;;;;;;;12.90;59.00;;;;;;2086228;28;1229;-48
2021/03/19 06:31:15;;;;;;;;;;;12.90;58.80;;;;;;2081293;28;1190;-48
2021/03/19 06:32:34;;;;;;;;;;;13.00;58.60;;;;;;2085524;28;1123;-48
2021/03/19 06:34:08;;;;;;;;;;;13.00;58.50;;;;;;2088278;28;1228;-49
2021/03/19 06:35:34;;;;;;;;;;;13.10;58.30;;;;;;2089431;28;1385;-48
2021/03/19 06:36:57;;;;;;;;;;;13.10;58.00;;;;;;2090878;28;1400;-48
2021/03/19 06:38:32;;;;;;;;;;;13.20;58.00;;;;;;2089950;28;1222;-48
2021/03/19 06:39:52;;;;;;;;;;;13.20;57.90;;;;;;2088495;28;1375;-49
2021/03/19 06:41:21;;;;;;;;;;;13.20;57.70;;;;;;2081199;28;1373;-49
2021/03/19 06:42:41;;;;;;;;;;;13.20;57.70;;;;;;2085414;28;1165;-48
2021/03/19 06:44:17;;;;;;;;;;;13.30;57.70;;;;;;2090579;28;1287;-49
2021/03/19 06:45:36;;;;;;;;;;;13.30;57.60;;;;;;2090853;28;1117;-46
2021/03/19 06:46:58;;;;;;;;;;;13.30;57.70;;;;;;2088065;28;1343;-47
2021/03/19 06:48:30;;;;;;;;;;;13.30;57.70;;;;;;2089091;28;1203;-46
2021/03/19 06:49:53;;;;;;;;;;;13.30;57.70;;;;;;2086857;28;1459;-46
2021/03/19 06:51:28;;;;;;;;;;;13.30;57.80;;;;;;2077482;28;1280;-45
2021/03/19 06:52:47;;;;;;;;;;;13.30;57.80;;;;;;2087280;28;1296;-46
2021/03/19 06:54:06;;;;;;;;;;;13.40;57.80;;;;;;2091514;28;1241;-46
2021/03/19 06:55:44;;;;;;;;;;;13.40;57.70;;;;;;2080431;28;1212;-48
2021/03/19 06:57:04;;;;;;;;;;;13.40;58.10;;;;;;2092163;28;1934;-47
2021/03/19 06:58:33;;;;;;;;;;;13.40;57.50;;;;;;2083486;28;1258;-48
2021/03/19 06:59:55;;;;;;;;;;;13.40;57.40;;;;;;2086072;28;1378;-49
2021/03/19 07:01:35;;;;;;;;;;;13.50;57.50;;;;;;2090190;28;1462;-49
2021/03/19 07:03:12;;;;;;;;;;;12.90;48.30;;;;;;2088501;28;1173;-48
2021/03/19 07:04:53;;;;;;;;;;;12.20;47.90;;;;;;2091048;28;1057;-45
2021/03/19 07:06:30;;;;;;;;;;;12.20;50.00;;;;;;2091972;28;1337;-46
2021/03/19 07:07:50;;;;;;;;;;;12.40;49.60;;;;;;2087549;28;1338;-45
2021/03/19 07:09:16;;;;;;;;;;;12.60;49.30;;;;;;2089164;28;1529;-47
2021/03/19 07:10:38;;;;;;;;;;;12.70;48.90;;;;;;2086863;28;1281;-47
2021/03/19 07:12:06;;;;;;;;;;;12.80;48.80;;;;;;2088721;28;1263;-46
2021/03/19 07:13:41;;;;;;;;;;;12.90;48.70;;;;;;2095403;28;1148;-47
2021/03/19 07:15:04;;;;;;;;;;;13.00;48.70;;;;;;2090351;28;1417;-46
2021/03/19 07:16:27;;;;;;;;;;;13.10;48.80;;;;;;2094922;28;1235;-46
2021/03/19 07:17:49;;;;;;;;;;;13.20;49.00;;;;;;2090502;28;1883;-46
2021/03/19 07:19:20;;;;;;;;;;;13.20;48.90;;;;;;2086954;28;1526;-46
2021/03/19 07:20:42;;;;;;;;;;;13.30;49.10;;;;;;2089928;28;1235;-46
2021/03/19 07:22:07;;;;;;;;;;;13.40;49.20;;;;;;2089155;28;1360;-47
2021/03/19 07:23:28;;;;;;;;;;;13.40;49.10;;;;;;2091776;28;1365;-47
2021/03/19 07:25:08;;;;;;;;;;;13.40;49.30;;;;;;2082449;28;1306;-48
2021/03/19 07:26:28;;;;;;;;;;;13.50;49.40;;;;;;2088178;28;1659;-48
2021/03/19 07:28:03;;;;;;;;;;;13.50;49.40;;;;;;2090725;28;1331;-47
2021/03/19 07:29:22;;;;;;;;;;;13.50;49.50;;;;;;2090803;28;1403;-48
2021/03/19 07:30:50;;;;;;;;;;;13.60;49.70;;;;;;2091199;28;1430;-47
2021/03/19 07:32:09;;;;;;;;;;;13.50;49.70;;;;;;2093982;28;1319;-48
2021/03/19 07:33:33;;;;;;;;;;;13.50;50.40;;;;;;2091195;28;1137;-47
2021/03/19 07:35:02;;;;;;;;;;;13.50;50.00;;;;;;2080828;28;1274;-47
2021/03/19 07:36:25;;;;;;;;;;;13.50;50.10;;;;;;2087455;28;1347;-46
2021/03/19 07:37:44;;;;;;;;;;;13.50;50.30;;;;;;2079042;28;1906;-47
2021/03/19 07:39:04;;;;;;;;;;;13.50;50.40;;;;;;2089984;28;1555;-48
2021/03/19 07:40:23;;;;;;;;;;;13.50;50.60;;;;;;2092033;28;1189;-46
2021/03/19 07:41:48;;;;;;;;;;;13.50;50.80;;;;;;2093487;28;1321;-48
2021/03/19 07:43:07;;;;;;;;;;;13.50;50.90;;;;;;2087651;28;1261;-47
2021/03/19 07:44:37;;;;;;;;;;;13.50;50.90;;;;;;2088731;28;1286;-48
2021/03/19 07:45:59;;;;;;;;;;;13.50;51.10;;;;;;2088178;28;1377;-47
2021/03/19 07:47:18;;;;;;;;;;;13.50;51.70;;;;;;2088467;28;1174;-47
2021/03/19 07:48:40;;;;;;;;;;;13.50;51.30;;;;;;2090562;28;1474;-48
2021/03/19 07:50:18;;;;;;;;;;;13.50;51.30;;;;;;2089193;28;1325;-46
2021/03/19 07:51:45;;;;;;;;;;;13.50;51.40;;;;;;2087432;28;1410;-47
2021/03/19 07:53:07;;;;;;;;;;;13.50;51.50;;;;;;2081657;28;1351;-47
2021/03/19 07:54:43;;;;;;;;;;;13.50;51.60;;;;;;2087613;28;1187;-47
2021/03/19 07:56:14;;;;;;;;;;;13.50;51.80;;;;;;2092947;28;1440;-47
2021/03/19 07:57:36;;;;;;;;;;;13.50;51.80;;;;;;2091527;28;1910;-46
2021/03/19 07:59:04;;;;;;;;;;;13.40;51.80;;;;;;2092522;28;1168;-47
2021/03/19 08:00:28;;;;;;;;;;;13.40;52.00;;;;;;2093643;28;1086;-47
2021/03/19 08:01:49;;;;;;;;;;;13.40;52.10;;;;;;2081966;28;1273;-47
2021/03/19 08:03:11;;;;;;;;;;;13.40;52.20;;;;;;2088654;28;1251;-48
2021/03/19 08:04:37;;;;;;;;;;;13.40;52.30;;;;;;2093860;28;1237;-47
2021/03/19 08:05:56;;;;;;;;;;;13.40;52.40;;;;;;2072921;28;1370;-48
2021/03/19 08:07:15;;;;;;;;;;;13.30;52.50;;;;;;2074608;28;1409;-48
2021/03/19 08:08:39;;;;;;;;;;;13.30;52.60;;;;;;2083502;28;1228;-48
2021/03/19 08:10:04;;;;;;;;;;;13.30;52.70;;;;;;2089765;28;1075;-48
2021/03/19 08:11:32;;;;;;;;;;;13.30;52.90;;;;;;2088328;28;1168;-48